createdAt,value
2018-04-22T00:02:07.994Z,-53
2018-04-22T00:04:33.655Z,-56
2018-04-22T00:06:59.319Z,-55
2018-04-22T00:09:25.000Z,-55
2018-04-22T00:11:50.664Z,-54
2018-04-22T00:14:16.333Z,-54
2018-04-22T00:16:42.025Z,-55
2018-04-22T00:19:07.727Z,-56
2018-04-22T00:21:33.438Z,-55
2018-04-22T00:23:59.120Z,-54
2018-04-22T00:26:24.790Z,-55
2018-04-22T00:28:50.496Z,-54
2018-04-22T00:31:16.168Z,-53
2018-04-22T00:33:42.074Z,-55
2018-04-22T00:36:07.732Z,-55
2018-04-22T00:38:33.467Z,-52
2018-04-22T00:40:59.131Z,-53
2018-04-22T00:43:24.824Z,-55
2018-04-22T00:45:50.479Z,-54
2018-04-22T00:48:16.155Z,-54
2018-04-22T00:50:41.962Z,-55
2018-04-22T00:53:07.694Z,-55
2018-04-22T00:55:33.520Z,-53
2018-04-22T00:57:59.201Z,-55
2018-04-22T01:00:24.858Z,-55
2018-04-22T01:02:50.547Z,-55
2018-04-22T01:05:16.208Z,-53
2018-04-22T01:07:41.863Z,-55
2018-04-22T01:10:07.523Z,-54
2018-04-22T01:12:33.189Z,-54
2018-04-22T01:14:58.926Z,-54
2018-04-22T01:17:24.611Z,-53
2018-04-22T01:19:50.267Z,-53
2018-04-22T01:22:16.331Z,-54
2018-04-22T01:24:42.006Z,-53
2018-04-22T01:27:07.695Z,-55
2018-04-22T01:29:33.343Z,-54
2018-04-22T01:31:59.019Z,-54
2018-04-22T01:34:24.954Z,-54
2018-04-22T01:36:50.615Z,-54
2018-04-22T01:39:16.310Z,-53
2018-04-22T01:41:41.967Z,-55
2018-04-22T01:44:07.925Z,-53
2018-04-22T01:46:33.603Z,-53
2018-04-22T01:48:59.298Z,-53
2018-04-22T01:51:24.967Z,-53
2018-04-22T01:53:50.661Z,-53
2018-04-22T01:56:16.332Z,-53
2018-04-22T01:58:42.016Z,-54
2018-04-22T02:01:07.686Z,-54
2018-04-22T02:03:33.371Z,-54
2018-04-22T02:05:59.046Z,-53
2018-04-22T02:08:24.719Z,-54
2018-04-22T02:10:50.692Z,-53
2018-04-22T02:13:16.367Z,-53
2018-04-22T02:15:42.078Z,-56
2018-04-22T02:18:07.755Z,-55
2018-04-22T02:20:33.566Z,-54
2018-04-22T02:22:59.214Z,-54
2018-04-22T02:25:24.903Z,-54
2018-04-22T02:27:50.591Z,-53
2018-04-22T02:30:16.249Z,-53
2018-04-22T02:32:41.950Z,-53
2018-04-22T02:35:07.612Z,-53
2018-04-22T02:37:33.303Z,-52
2018-04-22T02:39:58.978Z,-55
2018-04-22T02:42:24.731Z,-53
2018-04-22T02:44:50.410Z,-54
2018-04-22T02:47:16.075Z,-53
2018-04-22T02:49:41.781Z,-53
2018-04-22T02:52:07.455Z,-54
2018-04-22T02:54:33.130Z,-54
2018-04-22T02:56:58.803Z,-55
2018-04-22T02:59:24.708Z,-53
2018-04-22T03:01:50.371Z,-52
2018-04-22T03:04:16.055Z,-52
2018-04-22T03:06:41.722Z,-54
2018-04-22T03:09:07.387Z,-55
2018-04-22T03:11:33.342Z,-54
2018-04-22T03:13:59.007Z,-53
2018-04-22T03:16:24.846Z,-53
2018-04-22T03:18:50.574Z,-53
2018-04-22T03:21:16.278Z,-54
2018-04-22T03:23:41.939Z,-54
2018-04-22T03:26:07.629Z,-56
2018-04-22T03:28:33.310Z,-54
2018-04-22T03:30:58.995Z,-53
2018-04-22T03:33:24.676Z,-53
2018-04-22T03:35:50.563Z,-54
2018-04-22T03:38:16.227Z,-54
2018-04-22T03:40:41.921Z,-54
2018-04-22T03:43:07.619Z,-56
2018-04-22T03:45:33.299Z,-54
2018-04-22T03:47:58.969Z,-53
2018-04-22T03:50:24.638Z,-54
2018-04-22T03:52:50.311Z,-54
2018-04-22T03:55:16.360Z,-53
2018-04-22T03:57:42.066Z,-52
2018-04-22T04:00:07.782Z,-55
2018-04-22T04:02:33.443Z,-53
2018-04-22T04:04:59.115Z,-54
2018-04-22T04:07:24.782Z,-54
2018-04-22T04:09:50.495Z,-54
2018-04-22T04:12:16.162Z,-54
2018-04-22T04:14:41.834Z,-55
2018-04-22T04:17:07.516Z,-53
2018-04-22T04:19:39.346Z,-53
2018-04-22T04:22:11.106Z,-54
2018-04-22T04:24:42.871Z,-55
2018-04-22T04:27:14.644Z,-54
2018-04-22T04:29:40.323Z,-54
2018-04-22T04:32:05.974Z,-52
2018-04-22T04:34:32.471Z,-52
2018-04-22T04:36:58.142Z,-53
2018-04-22T04:39:24.090Z,-55
2018-04-22T04:41:49.754Z,-54
2018-04-22T04:44:15.417Z,-54
2018-04-22T04:46:41.140Z,-53
2018-04-22T04:49:06.808Z,-55
2018-04-22T04:51:32.462Z,-55
2018-04-22T04:53:58.135Z,-53
2018-04-22T04:56:24.271Z,-53
2018-04-22T04:58:50.071Z,-54
2018-04-22T05:01:15.740Z,-54
2018-04-22T05:03:41.403Z,-53
2018-04-22T05:06:07.091Z,-53
2018-04-22T05:08:32.760Z,-55
2018-04-22T05:10:58.591Z,-54
2018-04-22T05:13:24.257Z,-53
2018-04-22T05:15:49.939Z,-53
2018-04-22T05:18:15.620Z,-54
2018-04-22T05:20:41.312Z,-55
2018-04-22T05:23:06.991Z,-54
2018-04-22T05:25:32.647Z,-55
2018-04-22T05:27:58.355Z,-53
2018-04-22T05:30:24.020Z,-53
2018-04-22T05:32:49.770Z,-54
2018-04-22T05:35:15.478Z,-55
2018-04-22T05:37:41.159Z,-54
2018-04-22T05:40:06.854Z,-54
2018-04-22T05:42:32.535Z,-55
2018-04-22T05:44:58.198Z,-54
2018-04-22T05:47:23.883Z,-55
2018-04-22T05:49:49.543Z,-54
2018-04-22T05:52:15.231Z,-55
2018-04-22T05:54:40.879Z,-54
2018-04-22T05:57:06.580Z,-55
2018-04-22T05:59:32.237Z,-55
2018-04-22T06:01:57.923Z,-54
2018-04-22T06:04:23.593Z,-55
2018-04-22T06:06:49.319Z,-54
2018-04-22T06:09:14.983Z,-55
2018-04-22T06:11:40.707Z,-55
2018-04-22T06:14:06.363Z,-56
2018-04-22T06:16:32.082Z,-55
2018-04-22T06:18:57.745Z,-55
2018-04-22T06:21:23.434Z,-54
2018-04-22T06:23:49.099Z,-55
2018-04-22T06:26:14.771Z,-55
2018-04-22T06:28:40.430Z,-55
2018-04-22T06:31:06.152Z,-55
2018-04-22T06:33:31.833Z,-55
2018-04-22T06:35:57.738Z,-56
2018-04-22T06:38:23.399Z,-56
2018-04-22T06:40:49.092Z,-56
2018-04-22T06:43:14.766Z,-56
2018-04-22T06:45:40.450Z,-56
2018-04-22T06:48:06.124Z,-54
2018-04-22T06:50:31.782Z,-56
2018-04-22T06:52:57.451Z,-55
2018-04-22T06:55:23.242Z,-55
2018-04-22T06:57:48.966Z,-54
2018-04-22T07:00:14.639Z,-54
2018-04-22T07:02:40.315Z,-55
2018-04-22T07:05:06.003Z,-55
2018-04-22T07:07:31.690Z,-56
2018-04-22T07:09:57.380Z,-56
2018-04-22T07:12:23.077Z,-55
2018-04-22T07:14:48.743Z,-54
2018-04-22T07:17:14.418Z,-54
2018-04-22T07:19:40.107Z,-55
2018-04-22T07:22:05.782Z,-56
2018-04-22T07:24:31.443Z,-56
2018-04-22T07:26:57.352Z,-55
2018-04-22T07:29:23.035Z,-54
2018-04-22T07:31:48.715Z,-55
2018-04-22T07:34:14.378Z,-55
2018-04-22T07:36:40.084Z,-56
2018-04-22T07:39:05.747Z,-55
2018-04-22T07:41:31.431Z,-54
2018-04-22T07:43:57.126Z,-55
2018-04-22T07:46:22.790Z,-55
2018-04-22T07:48:48.471Z,-54
2018-04-22T07:51:14.122Z,-58
2018-04-22T07:53:40.055Z,-57
2018-04-22T07:56:05.731Z,-55
2018-04-22T07:58:31.430Z,-55
2018-04-22T08:00:57.087Z,-55
2018-04-22T08:03:22.783Z,-55
2018-04-22T08:05:48.444Z,-55
2018-04-22T08:08:14.149Z,-56
2018-04-22T08:10:39.819Z,-55
2018-04-22T08:13:05.547Z,-56
2018-04-22T08:15:31.232Z,-54
2018-04-22T08:17:56.915Z,-53
2018-04-22T08:20:22.585Z,-54
2018-04-22T08:22:48.317Z,-56
2018-04-22T08:25:13.982Z,-56
2018-04-22T08:27:39.699Z,-57
2018-04-22T08:30:05.343Z,-56
2018-04-22T08:32:31.023Z,-56
2018-04-22T08:34:56.686Z,-56
2018-04-22T08:37:22.459Z,-56
2018-04-22T08:39:48.123Z,-57
2018-04-22T08:42:13.806Z,-57
2018-04-22T08:44:39.478Z,-55
2018-04-22T08:47:05.174Z,-53
2018-04-22T08:49:30.839Z,-56
2018-04-22T08:51:56.529Z,-53
2018-04-22T08:54:22.220Z,-54
2018-04-22T08:56:47.884Z,-53
2018-04-22T08:59:13.683Z,-53
2018-04-22T09:01:39.335Z,-57
2018-04-22T09:04:05.031Z,-52
2018-04-22T09:06:30.827Z,-53
2018-04-22T09:08:56.495Z,-53
2018-04-22T09:11:22.337Z,-53
2018-04-22T09:13:48.930Z,-52
2018-04-22T09:16:14.784Z,-54
2018-04-22T09:18:40.539Z,-56
2018-04-22T09:21:06.341Z,-54
2018-04-22T09:23:32.881Z,-54
2018-04-22T09:28:58.221Z,-53
2018-04-22T09:31:23.878Z,-55
2018-04-22T09:33:49.580Z,-53
2018-04-22T09:36:15.253Z,-51
2018-04-22T09:38:40.931Z,-50
2018-04-22T09:41:06.599Z,-51
2018-04-22T09:43:32.918Z,-51
2018-04-22T09:45:58.647Z,-52
2018-04-22T09:48:24.267Z,-53
2018-04-22T09:50:49.923Z,-50
2018-04-22T09:53:15.595Z,-52
2018-04-22T09:55:41.384Z,-53
2018-04-22T09:58:07.434Z,-54
2018-04-22T10:00:33.427Z,-53
2018-04-22T10:02:59.110Z,-51
2018-04-22T10:05:24.772Z,-51
2018-04-22T10:07:50.454Z,-51
2018-04-22T10:10:16.128Z,-51
2018-04-22T10:12:41.820Z,-52
2018-04-22T10:15:07.495Z,-51
2018-04-22T10:17:33.173Z,-51
2018-04-22T10:19:58.872Z,-51
2018-04-22T10:22:24.536Z,-51
2018-04-22T10:24:50.207Z,-51
2018-04-22T10:27:15.864Z,-51
2018-04-22T10:29:41.549Z,-52
2018-04-22T10:32:07.205Z,-51
2018-04-22T10:34:32.891Z,-51
2018-04-22T10:36:58.561Z,-52
2018-04-22T10:39:24.247Z,-52
2018-04-22T10:41:49.911Z,-50
2018-04-22T10:44:15.583Z,-50
2018-04-22T10:46:41.265Z,-51
2018-04-22T10:49:06.937Z,-50
2018-04-22T10:51:32.611Z,-52
2018-04-22T10:53:58.494Z,-51
2018-04-22T10:56:24.479Z,-51
2018-04-22T10:58:50.173Z,-52
2018-04-22T11:01:15.875Z,-51
2018-04-22T11:03:41.573Z,-51
2018-04-22T11:06:07.236Z,-51
2018-04-22T11:08:32.899Z,-52
2018-04-22T11:10:58.564Z,-52
2018-04-22T11:13:24.242Z,-51
2018-04-22T11:15:49.894Z,-51
2018-04-22T11:18:15.583Z,-54
2018-04-22T11:20:41.291Z,-52
2018-04-22T11:23:06.962Z,-52
2018-04-22T11:25:32.658Z,-52
2018-04-22T11:27:58.315Z,-52
2018-04-22T11:30:24.002Z,-51
2018-04-22T11:32:49.684Z,-51
2018-04-22T11:35:15.583Z,-52
2018-04-22T11:37:41.251Z,-52
2018-04-22T11:40:07.155Z,-51
2018-04-22T11:42:32.825Z,-51
2018-04-22T11:44:58.502Z,-51
2018-04-22T11:47:24.189Z,-52
2018-04-22T11:49:49.871Z,-52
2018-04-22T11:52:15.527Z,-51
2018-04-22T11:54:41.222Z,-51
2018-04-22T11:57:06.887Z,-52
2018-04-22T11:59:32.590Z,-52
2018-04-22T12:01:58.246Z,-51
2018-04-22T12:04:23.908Z,-50
2018-04-22T12:06:49.566Z,-51
2018-04-22T12:09:15.263Z,-51
2018-04-22T12:11:40.942Z,-55
2018-04-22T12:14:06.591Z,-50
2018-04-22T12:16:32.278Z,-52
2018-04-22T12:18:57.938Z,-52
2018-04-22T12:21:23.623Z,-51
2018-04-22T12:23:49.318Z,-52
2018-04-22T12:26:15.002Z,-52
2018-04-22T12:28:40.667Z,-52
2018-04-22T12:31:06.357Z,-53
2018-04-22T12:33:32.013Z,-52
2018-04-22T12:35:57.724Z,-51
2018-04-22T12:38:23.386Z,-51
2018-04-22T12:40:49.071Z,-51
2018-04-22T12:43:14.761Z,-52
2018-04-22T12:45:40.466Z,-53
2018-04-22T12:48:06.135Z,-53
2018-04-22T12:50:31.803Z,-53
2018-04-22T12:52:57.515Z,-51
2018-04-22T12:55:23.178Z,-51
2018-04-22T12:57:48.874Z,-52
2018-04-22T13:00:14.543Z,-53
2018-04-22T13:02:40.211Z,-51
2018-04-22T13:05:05.898Z,-52
2018-04-22T13:07:31.559Z,-52
2018-04-22T13:09:57.246Z,-51
2018-04-22T13:12:22.927Z,-52
2018-04-22T13:14:48.594Z,-52
2018-04-22T13:17:14.277Z,-52
2018-04-22T13:19:40.015Z,-51
2018-04-22T13:22:05.691Z,-52
2018-04-22T13:24:31.429Z,-52
2018-04-22T13:26:57.127Z,-52
2018-04-22T13:29:22.787Z,-52
2018-04-22T13:31:48.459Z,-52
2018-04-22T13:34:14.124Z,-52
2018-04-22T13:36:39.948Z,-51
2018-04-22T13:39:05.628Z,-52
2018-04-22T13:41:31.345Z,-51
2018-04-22T13:43:56.999Z,-53
2018-04-22T13:46:22.691Z,-53
2018-04-22T13:48:48.375Z,-52
2018-04-22T13:51:14.048Z,-53
2018-04-22T13:53:39.703Z,-52
2018-04-22T13:56:05.393Z,-52
2018-04-22T13:58:31.059Z,-52
2018-04-22T14:00:56.739Z,-51
2018-04-22T14:03:22.424Z,-52
2018-04-22T14:05:48.140Z,-52
2018-04-22T14:08:13.790Z,-51
2018-04-22T14:10:39.458Z,-52
2018-04-22T14:13:05.147Z,-50
2018-04-22T14:15:31.218Z,-51
2018-04-22T14:17:56.899Z,-51
2018-04-22T14:20:22.547Z,-51
2018-04-22T14:22:48.231Z,-51
2018-04-22T14:25:13.946Z,-51
2018-04-22T14:27:39.590Z,-51
2018-04-22T14:30:05.278Z,-50
2018-04-22T14:32:31.115Z,-51
2018-04-22T14:34:56.766Z,-53
2018-04-22T14:37:22.455Z,-52
2018-04-22T14:39:48.122Z,-52
2018-04-22T14:42:13.787Z,-52
2018-04-22T14:44:45.493Z,-51
2018-04-22T14:47:11.165Z,-52
2018-04-22T14:49:36.838Z,-51
2018-04-22T14:52:02.580Z,-51
2018-04-22T14:54:28.256Z,-51
2018-04-22T14:56:53.962Z,-51
2018-04-22T14:59:19.632Z,-53
2018-04-22T15:01:45.328Z,-52
2018-04-22T15:04:10.986Z,-51
2018-04-22T15:06:36.671Z,-52
2018-04-22T15:09:02.354Z,-52
2018-04-22T15:11:28.044Z,-51
2018-04-22T15:13:53.729Z,-51
2018-04-22T15:16:19.407Z,-52
2018-04-22T15:18:45.079Z,-52
2018-04-22T15:21:10.760Z,-51
2018-04-22T15:23:36.699Z,-51
2018-04-22T15:26:02.360Z,-51
2018-04-22T15:28:28.050Z,-53
2018-04-22T15:30:53.731Z,-52
2018-04-22T15:33:19.382Z,-51
2018-04-22T15:35:45.060Z,-51
2018-04-22T15:38:10.750Z,-55
2018-04-22T15:40:36.400Z,-54
2018-04-22T15:43:02.130Z,-52
2018-04-22T15:45:27.817Z,-53
2018-04-22T15:47:53.499Z,-51
2018-04-22T15:50:19.209Z,-53
2018-04-22T15:52:44.914Z,-53
2018-04-22T15:55:10.582Z,-51
2018-04-22T15:57:36.271Z,-52
2018-04-22T16:00:01.935Z,-52
2018-04-22T16:02:27.633Z,-53
2018-04-22T16:04:53.311Z,-52
2018-04-22T16:07:18.991Z,-52
2018-04-22T16:09:44.694Z,-54
2018-04-22T16:12:10.372Z,-53
2018-04-22T16:14:36.105Z,-54
2018-04-22T16:17:01.760Z,-53
2018-04-22T16:19:27.411Z,-52
2018-04-22T16:21:53.075Z,-53
2018-04-22T16:24:18.997Z,-54
2018-04-22T16:26:44.659Z,-53
2018-04-22T16:29:10.648Z,-53
2018-04-22T16:31:36.307Z,-53
2018-04-22T16:34:01.976Z,-53
2018-04-22T16:36:27.647Z,-52
2018-04-22T16:38:53.319Z,-53
2018-04-22T16:41:18.970Z,-53
2018-04-22T16:43:44.627Z,-52
2018-04-22T16:46:10.278Z,-53
2018-04-22T16:48:35.962Z,-53
2018-04-22T16:51:01.706Z,-52
2018-04-22T16:53:27.398Z,-53
2018-04-22T16:55:53.107Z,-53
2018-04-22T16:58:18.813Z,-55
2018-04-22T17:00:44.510Z,-53
2018-04-22T17:03:10.172Z,-53
2018-04-22T17:05:35.889Z,-52
2018-04-22T17:08:01.575Z,-53
2018-04-22T17:10:27.282Z,-52
2018-04-22T17:12:53.130Z,-53
2018-04-22T17:15:18.839Z,-53
2018-04-22T17:17:44.506Z,-56
2018-04-22T17:20:10.174Z,-53
2018-04-22T17:22:35.847Z,-51
2018-04-22T17:25:02.479Z,-52
2018-04-22T17:27:28.183Z,-52
2018-04-22T17:29:53.851Z,-51
2018-04-22T17:32:19.530Z,-51
2018-04-22T17:34:46.035Z,-52
2018-04-22T17:37:11.695Z,-52
2018-04-22T17:39:37.503Z,-38
2018-04-22T17:42:03.259Z,-38
2018-04-22T17:48:30.579Z,-48
2018-04-22T17:50:56.433Z,-50
2018-04-22T17:53:22.282Z,-50
2018-04-22T17:55:48.123Z,-51
2018-04-22T17:58:13.790Z,-53
2018-04-22T18:00:39.475Z,-50
2018-04-22T18:03:05.151Z,-50
2018-04-22T18:05:30.838Z,-49
2018-04-22T18:07:56.502Z,-51
2018-04-22T18:10:22.210Z,-50
2018-04-22T18:12:47.887Z,-51
2018-04-22T18:15:13.634Z,-50
2018-04-22T18:17:39.284Z,-50
2018-04-22T18:20:04.971Z,-51
2018-04-22T18:22:30.651Z,-50
2018-04-22T18:24:57.431Z,-50
2018-04-22T18:27:23.106Z,-50
2018-04-22T18:29:48.782Z,-50
2018-04-22T18:32:14.674Z,-52
2018-04-22T18:34:40.376Z,-52
2018-04-22T18:37:06.042Z,-51
2018-04-22T18:39:31.727Z,-50
2018-04-22T18:41:57.419Z,-50
2018-04-22T18:44:23.092Z,-50
2018-04-22T18:46:48.774Z,-49
2018-04-22T18:49:14.463Z,-53
2018-04-22T18:51:40.203Z,-52
2018-04-22T18:54:06.105Z,-51
2018-04-22T18:56:31.794Z,-50
2018-04-22T18:58:57.467Z,-51
2018-04-22T19:01:23.134Z,-51
2018-04-22T19:03:48.823Z,-51
2018-04-22T19:06:14.506Z,-52
2018-04-22T19:08:40.174Z,-51
2018-04-22T19:11:05.855Z,-51
2018-04-22T19:13:31.547Z,-50
2018-04-22T19:15:57.195Z,-50
2018-04-22T19:18:22.886Z,-51
2018-04-22T19:20:48.570Z,-51
2018-04-22T19:23:14.266Z,-54
2018-04-22T19:25:39.934Z,-51
2018-04-22T19:28:05.651Z,-51
2018-04-22T19:30:31.366Z,-51
2018-04-22T19:32:57.090Z,-51
2018-04-22T19:35:22.754Z,-51
2018-04-22T19:37:48.418Z,-51
2018-04-22T19:40:14.196Z,-51
2018-04-22T19:42:39.812Z,-51
2018-04-22T19:45:05.486Z,-50
2018-04-22T19:47:31.178Z,-52
2018-04-22T19:49:56.851Z,-51
2018-04-22T19:52:22.559Z,-51
2018-04-22T19:54:48.266Z,-52
2018-04-22T19:57:13.941Z,-51
2018-04-22T19:59:39.618Z,-50
2018-04-22T20:02:05.279Z,-50
2018-04-22T20:04:30.981Z,-51
2018-04-22T20:06:56.630Z,-52
2018-04-22T20:09:22.313Z,-51
2018-04-22T20:11:47.971Z,-51
2018-04-22T20:14:13.668Z,-50
2018-04-22T20:16:39.377Z,-51
2018-04-22T20:19:05.060Z,-51
2018-04-22T20:21:30.742Z,-51
2018-04-22T20:23:56.404Z,-52
2018-04-22T20:26:22.092Z,-50
2018-04-22T20:28:47.754Z,-51
2018-04-22T20:31:13.475Z,-51
2018-04-22T20:33:39.152Z,-50
2018-04-22T20:36:04.875Z,-50
2018-04-22T20:38:30.541Z,-51
2018-04-22T20:40:56.223Z,-51
2018-04-22T20:43:21.922Z,-51
2018-04-22T20:45:47.596Z,-50
2018-04-22T20:48:13.262Z,-51
2018-04-22T20:50:38.971Z,-50
2018-04-22T20:53:04.681Z,-51
2018-04-22T20:55:30.350Z,-50
2018-04-22T20:57:56.037Z,-39
2018-04-22T21:02:11.851Z,-42
2018-04-22T21:04:37.695Z,-48
2018-04-22T21:07:03.442Z,-48
2018-04-22T21:09:29.230Z,-47
2018-04-22T21:11:54.993Z,-48
2018-04-22T21:14:20.756Z,-47
2018-04-22T21:16:46.528Z,-47
2018-04-22T21:19:12.277Z,-46
2018-04-22T21:21:38.066Z,-46
2018-04-22T21:24:03.830Z,-46
2018-04-22T21:26:29.618Z,-46
2018-04-22T21:28:55.383Z,-46
2018-04-22T21:31:21.155Z,-46
2018-04-22T21:33:46.955Z,-46
2018-04-22T21:36:13.246Z,-46
2018-04-22T21:38:39.060Z,-46
2018-04-22T21:41:06.090Z,-46
2018-04-22T21:43:34.359Z,-46
2018-04-22T21:46:01.927Z,-46
2018-04-22T21:48:27.692Z,-46
2018-04-22T21:50:53.512Z,-46
2018-04-22T21:53:19.268Z,-46
2018-04-22T21:55:45.048Z,-46
2018-04-22T21:58:10.845Z,-46
2018-04-22T22:00:39.679Z,-46
2018-04-22T22:03:05.453Z,-46
2018-04-22T22:05:31.200Z,-46
2018-04-22T22:07:56.955Z,-46
2018-04-22T22:10:22.711Z,-46
2018-04-22T22:12:52.663Z,-46
2018-04-22T22:15:18.426Z,-46
2018-04-22T22:17:44.245Z,-46
2018-04-22T22:20:09.991Z,-46
2018-04-22T22:22:35.774Z,-46
2018-04-22T22:25:01.566Z,-46
2018-04-22T22:27:27.331Z,-46
2018-04-22T22:29:53.074Z,-46
2018-04-22T22:32:18.908Z,-46
2018-04-22T22:34:44.655Z,-46
2018-04-22T22:37:10.531Z,-46
2018-04-22T22:39:36.303Z,-46
2018-04-22T22:42:02.100Z,-46
2018-04-22T22:44:27.862Z,-46
2018-04-22T22:46:53.747Z,-46
2018-04-22T22:49:19.521Z,-46
2018-04-22T22:51:45.325Z,-46
2018-04-22T22:54:11.082Z,-46
2018-04-22T22:56:36.875Z,-46
2018-04-22T22:59:17.582Z,-46
2018-04-22T23:01:43.363Z,-46
2018-04-22T23:04:09.120Z,-47
2018-04-22T23:06:34.935Z,-46
2018-04-22T23:09:00.700Z,-46
2018-04-22T23:11:26.463Z,-47
2018-04-22T23:13:52.219Z,-46
2018-04-22T23:16:18.020Z,-46
2018-04-22T23:18:44.047Z,-46
2018-04-22T23:21:09.797Z,-46
2018-04-22T23:23:35.589Z,-47
2018-04-22T23:26:01.369Z,-46
2018-04-22T23:28:27.275Z,-46
2018-04-22T23:30:53.047Z,-46
2018-04-22T23:33:18.826Z,-46
2018-04-22T23:35:44.575Z,-46
2018-04-22T23:38:10.359Z,-46
2018-04-22T23:40:36.098Z,-46
2018-04-22T23:43:01.879Z,-46
2018-04-22T23:45:27.639Z,-46
2018-04-22T23:47:53.422Z,-45
2018-04-22T23:50:19.188Z,-46
2018-04-22T23:52:44.948Z,-46
2018-04-22T23:55:10.741Z,-46
2018-04-22T23:57:36.544Z,-46
